Iver Agile — IBHW — position and weather

sailwx.info

Track history (hours):
 
Tides and Currents Weather Stations Pressure Air Temp Water Temp Dewpoint Dewpoint Depression Visibility Wind Speed Wind Dir Waves Ship Positions

Iver Agile

Last reported at 2016-Jun-28 04:33 UTC. Time now 2016-Jun-29 14:45 UTC.
Position N 35°58' W 005°38'.

Length 110 m; draft 5 m.

Type: Tanker. MMSI: 247103700.

Date/timePositionNaut miles runAvg speedWind from/ knotsBaromVisibWave heightAir tempDewpointWater temp
2016-Jun-28 04:33N 35°58' W 005°38'1211.8
2016-Jun-28 03:34N 36°01' W 005°24'1110.9
2016-Jun-28 02:31N 36°02' W 005°11'  
2016-Jun-25 19:30N 35°06' W 001°52'0 0.0
2016-Jun-25 16:31N 35°06' W 001°52'0 0.0
2016-Jun-25 04:04N 35°06' W 001°52'173 3.5
2016-Jun-23 03:20N 35°58' W 005°14'1013.3
2016-Jun-23 02:33N 35°57' W 005°27'1211.3
2016-Jun-23 01:30N 35°54' W 005°42'3010.1
2016-Jun-22 22:33N 35°55' W 006°18'80 2.6
2016-Jun-21 15:29N 37°09' W 006°54'75 4.6
2016-Jun-20 23:15N 35°55' W 007°01'910.8
2016-Jun-20 22:26N 35°46' W 007°03'1011.4
2016-Jun-20 21:33N 35°36' W 007°04'1311.5
2016-Jun-20 20:24N 35°23' W 007°06'2311.8
2016-Jun-20 18:26N 35°00' W 007°10'1011.8
2016-Jun-20 17:34N 34°50' W 007°11'1211.7
2016-Jun-20 16:34N 34°38' W 007°13'1212.0
2016-Jun-20 15:33N 34°27' W 007°17'1212.0
2016-Jun-20 14:34N 34°16' W 007°23'2110.4
2016-Jun-20 12:34N 33°55' W 007°28'1212.1
2016-Jun-20 11:33N 33°44' W 007°22'  
Track history (hours):
 
Tides and Currents Weather Stations Pressure Air Temp Water Temp Dewpoint Dewpoint Depression Visibility Wind Speed Wind Dir Waves Ship Positions

Iver Agile

Last reported at 2016-Jun-28 04:33 UTC. Time now 2016-Jun-29 14:45 UTC.
Position N 35°58' W 005°38'.

Length 110 m; draft 5 m.

Type: Tanker. MMSI: 247103700.

Date/timePositionNaut miles runAvg speedWind from/ knotsBaromVisibWave heightAir tempDewpointWater temp
2016-Jun-28 04:33N 35°58' W 005°38'1211.8
2016-Jun-28 03:34N 36°01' W 005°24'1110.9
2016-Jun-28 02:31N 36°02' W 005°11'  
2016-Jun-25 19:30N 35°06' W 001°52'0 0.0
2016-Jun-25 16:31N 35°06' W 001°52'0 0.0
2016-Jun-25 04:04N 35°06' W 001°52'173 3.5
2016-Jun-23 03:20N 35°58' W 005°14'1013.3
2016-Jun-23 02:33N 35°57' W 005°27'1211.3
2016-Jun-23 01:30N 35°54' W 005°42'3010.1
2016-Jun-22 22:33N 35°55' W 006°18'80 2.6
2016-Jun-21 15:29N 37°09' W 006°54'75 4.6
2016-Jun-20 23:15N 35°55' W 007°01'910.8
2016-Jun-20 22:26N 35°46' W 007°03'1011.4
2016-Jun-20 21:33N 35°36' W 007°04'1311.5
2016-Jun-20 20:24N 35°23' W 007°06'2311.8
2016-Jun-20 18:26N 35°00' W 007°10'1011.8
2016-Jun-20 17:34N 34°50' W 007°11'1211.7
2016-Jun-20 16:34N 34°38' W 007°13'1212.0
2016-Jun-20 15:33N 34°27' W 007°17'1212.0
2016-Jun-20 14:34N 34°16' W 007°23'2110.4
2016-Jun-20 12:34N 33°55' W 007°28'1212.1
2016-Jun-20 11:33N 33°44' W 007°22'  

Dump ship's entire track history